createdAt,value
2019-02-22T00:00:36.205Z,92.45
2019-02-22T00:03:02.857Z,94.52
2019-02-22T00:05:29.495Z,94.30
2019-02-22T00:07:56.340Z,99.05
2019-02-22T00:10:22.952Z,99.70
2019-02-22T00:12:49.711Z,98.50
2019-02-22T00:15:16.515Z,96.55
2019-02-22T00:17:43.257Z,96.08
2019-02-22T00:20:10.002Z,94.67
2019-02-22T00:22:36.696Z,92.90
2019-02-22T00:25:04.528Z,95.92
2019-02-22T00:27:31.245Z,96.28
2019-02-22T00:29:57.984Z,93.95
2019-02-22T00:32:24.715Z,95.07
2019-02-22T00:34:51.540Z,96.15
2019-02-22T00:37:18.410Z,93.10
2019-02-22T00:39:45.176Z,93.03
2019-02-22T00:42:11.883Z,91.37
2019-02-22T00:44:38.617Z,90.22
2019-02-22T00:47:05.403Z,87.53
2019-02-22T00:49:32.130Z,89.40
2019-02-22T00:51:58.939Z,91.90
2019-02-22T00:54:25.578Z,93.40
2019-02-22T00:56:52.425Z,94.35
2019-02-22T00:59:19.195Z,88.45
2019-02-22T01:01:45.802Z,88.67
2019-02-22T01:04:12.565Z,89.90
2019-02-22T01:06:39.377Z,87.97
2019-02-22T01:09:06.123Z,90.62
2019-02-22T01:11:33.030Z,92.15
2019-02-22T01:14:00.726Z,90.10
2019-02-22T01:16:27.357Z,89.58
2019-02-22T01:18:54.074Z,90.30
2019-02-22T01:21:20.951Z,90.12
2019-02-22T01:23:47.680Z,88.78
2019-02-22T01:26:14.399Z,93.00
2019-02-22T01:28:41.151Z,92.53
2019-02-22T01:31:07.739Z,90.50
2019-02-22T01:33:34.394Z,90.42
2019-02-22T01:36:01.100Z,90.87
2019-02-22T01:38:27.827Z,92.97
2019-02-22T01:40:54.531Z,93.12
2019-02-22T01:43:21.291Z,97.10
2019-02-22T01:45:47.914Z,95.28
2019-02-22T01:48:14.651Z,94.92
2019-02-22T01:50:41.371Z,91.55
2019-02-22T01:53:07.991Z,93.37
2019-02-22T01:55:34.655Z,91.20
2019-02-22T01:58:02.857Z,92.60
2019-02-22T02:00:29.552Z,91.45
2019-02-22T02:02:56.335Z,91.70
2019-02-22T02:05:23.210Z,92.12
2019-02-22T02:07:50.324Z,93.00
2019-02-22T02:10:18.212Z,89.03
2019-02-22T02:12:45.002Z,93.35
2019-02-22T02:15:11.765Z,92.22
2019-02-22T02:17:38.446Z,88.07
2019-02-22T02:20:06.450Z,87.40
2019-02-22T02:22:33.218Z,89.17
2019-02-22T02:24:59.864Z,87.17
2019-02-22T02:27:26.595Z,88.72
2019-02-22T02:29:53.180Z,89.52
2019-02-22T02:32:19.847Z,89.07
2019-02-22T02:34:46.510Z,88.07
2019-02-22T02:37:13.185Z,89.28
2019-02-22T02:39:39.803Z,87.17
2019-02-22T02:42:06.526Z,84.65
2019-02-22T02:44:33.118Z,83.07
2019-02-22T02:46:59.839Z,85.45
2019-02-22T02:49:26.531Z,86.08
2019-02-22T02:51:53.195Z,84.22
2019-02-22T02:54:20.046Z,84.42
2019-02-22T02:56:46.852Z,83.90
2019-02-22T02:59:14.591Z,82.62
2019-02-22T03:01:41.454Z,83.35
2019-02-22T03:04:08.294Z,84.42
2019-02-22T03:06:39.639Z,81.32
2019-02-22T03:09:08.319Z,83.00
2019-02-22T03:11:36.641Z,80.55
2019-02-22T03:14:03.454Z,77.10
2019-02-22T03:16:31.148Z,81.60
2019-02-22T03:18:57.902Z,79.40
2019-02-22T03:21:24.544Z,78.28
2019-02-22T03:23:51.220Z,79.37
2019-02-22T03:26:18.180Z,79.45
2019-02-22T03:28:44.829Z,80.15
2019-02-22T03:31:11.424Z,84.42
2019-02-22T03:33:38.152Z,81.35
2019-02-22T03:36:04.821Z,80.15
2019-02-22T03:38:31.458Z,79.65
2019-02-22T03:40:59.354Z,76.45
2019-02-22T03:43:26.068Z,75.75
2019-02-22T03:45:52.693Z,76.47
2019-02-22T03:48:19.544Z,79.30
2019-02-22T03:50:46.172Z,79.60
2019-02-22T03:53:14.612Z,77.05
2019-02-22T03:55:41.294Z,74.80
2019-02-22T03:58:08.136Z,74.37
2019-02-22T04:00:35.007Z,75.70
2019-02-22T04:03:01.724Z,76.15
2019-02-22T04:05:28.333Z,79.85
2019-02-22T04:07:55.089Z,78.70
2019-02-22T04:10:21.789Z,77.50
2019-02-22T04:12:48.490Z,77.62
2019-02-22T04:15:15.215Z,77.25
2019-02-22T04:17:42.060Z,76.28
2019-02-22T04:20:08.797Z,75.47
2019-02-22T04:22:35.550Z,76.77
2019-02-22T04:25:02.375Z,73.95
2019-02-22T04:27:29.117Z,72.40
2019-02-22T04:29:55.954Z,69.35
2019-02-22T04:32:22.694Z,72.05
2019-02-22T04:34:49.332Z,69.72
2019-02-22T04:37:15.958Z,71.30
2019-02-22T04:39:42.707Z,69.03
2019-02-22T04:42:09.311Z,73.50
2019-02-22T04:44:35.971Z,71.85
2019-02-22T04:47:02.664Z,71.17
2019-02-22T04:49:29.356Z,70.50
2019-02-22T04:51:56.049Z,68.20
2019-02-22T04:54:22.829Z,68.28
2019-02-22T04:56:49.489Z,69.32
2019-02-22T04:59:16.163Z,68.95
2019-02-22T05:01:42.948Z,70.57
2019-02-22T05:04:09.588Z,68.33
2019-02-22T05:06:37.448Z,66.57
2019-02-22T05:09:04.431Z,67.22
2019-02-22T05:11:31.639Z,64.12
2019-02-22T05:13:58.349Z,63.83
2019-02-22T05:16:25.069Z,66.28
2019-02-22T05:18:51.865Z,64.22
2019-02-22T05:21:18.606Z,64.80
2019-02-22T05:23:45.342Z,62.62
2019-02-22T05:26:11.982Z,62.75
2019-02-22T05:28:38.719Z,64.75
2019-02-22T05:31:05.407Z,65.97
2019-02-22T05:33:32.195Z,69.42
2019-02-22T05:35:58.922Z,64.05
2019-02-22T05:38:25.658Z,63.83
2019-02-22T05:40:52.298Z,63.38
2019-02-22T05:43:19.016Z,64.03
2019-02-22T05:45:46.718Z,62.33
2019-02-22T05:48:13.656Z,63.70
2019-02-22T05:50:40.913Z,63.42
2019-02-22T05:53:08.669Z,62.33
2019-02-22T05:55:35.379Z,57.80
2019-02-22T05:58:02.251Z,59.55
2019-02-22T06:00:29.207Z,60.03
2019-02-22T06:02:57.068Z,57.45
2019-02-22T06:05:23.791Z,57.58
2019-02-22T06:07:50.507Z,55.60
2019-02-22T06:10:17.232Z,57.30
2019-02-22T06:12:44.131Z,57.35
2019-02-22T06:15:11.174Z,56.77
2019-02-22T06:17:37.885Z,57.60
2019-02-22T06:20:09.972Z,59.60
2019-02-22T06:25:04.273Z,59.10
2019-02-22T06:27:31.323Z,61.53
2019-02-22T06:29:58.010Z,61.15
2019-02-22T06:32:24.803Z,59.25
2019-02-22T06:34:51.558Z,62.48
2019-02-22T06:37:18.311Z,59.70
2019-02-22T06:39:44.929Z,60.85
2019-02-22T06:42:11.710Z,59.93
2019-02-22T06:44:38.595Z,57.98
2019-02-22T06:47:05.327Z,59.35
2019-02-22T06:49:31.967Z,59.45
2019-02-22T06:51:59.042Z,58.40
2019-02-22T06:54:25.848Z,58.38
2019-02-22T06:56:52.619Z,60.75
2019-02-22T06:59:19.551Z,60.45
2019-02-22T07:01:49.704Z,58.68
2019-02-22T07:04:15.383Z,61.37
2019-02-22T07:06:42.322Z,58.08
2019-02-22T07:09:09.392Z,58.85
2019-02-22T07:11:38.059Z,58.90
2019-02-22T07:14:05.306Z,59.60
2019-02-22T07:16:32.249Z,57.50
2019-02-22T07:18:59.089Z,58.02
2019-02-22T07:21:26.264Z,55.70
2019-02-22T07:23:53.119Z,55.52
2019-02-22T07:26:20.293Z,56.08
2019-02-22T07:28:47.379Z,56.60
2019-02-22T07:31:14.103Z,56.73
2019-02-22T07:33:40.752Z,57.45
2019-02-22T07:36:07.820Z,57.03
2019-02-22T07:38:34.513Z,57.25
2019-02-22T07:41:01.287Z,58.75
2019-02-22T07:43:27.995Z,57.80
2019-02-22T07:45:54.658Z,53.78
2019-02-22T07:48:21.405Z,53.50
2019-02-22T07:50:56.997Z,50.28
2019-02-22T07:53:16.610Z,49.35
2019-02-22T07:55:43.293Z,50.03
2019-02-22T07:58:09.992Z,48.90
2019-02-22T08:00:36.739Z,47.98
2019-02-22T08:03:03.447Z,52.95
2019-02-22T08:05:30.217Z,50.28
2019-02-22T08:07:56.830Z,54.48
2019-02-22T08:10:26.099Z,50.67
2019-02-22T08:12:52.091Z,48.55
2019-02-22T08:15:18.694Z,45.40
2019-02-22T08:17:45.284Z,46.10
2019-02-22T08:20:11.987Z,46.00
2019-02-22T08:22:38.717Z,47.10
2019-02-22T08:25:06.470Z,47.00
2019-02-22T08:27:33.169Z,44.50
2019-02-22T08:29:59.758Z,46.65
2019-02-22T08:32:26.515Z,46.30
2019-02-22T08:34:53.240Z,44.58
2019-02-22T08:37:19.939Z,45.30
2019-02-22T08:39:57.818Z,45.20
2019-02-22T08:42:15.399Z,46.23
2019-02-22T08:44:42.097Z,46.15
2019-02-22T08:47:08.774Z,44.83
2019-02-22T08:49:35.622Z,44.70
2019-02-22T08:52:02.231Z,45.28
2019-02-22T08:54:30.006Z,45.23
2019-02-22T08:56:56.662Z,44.40
2019-02-22T08:59:23.398Z,42.85
2019-02-22T09:01:50.036Z,43.75
2019-02-22T09:04:16.737Z,47.23
2019-02-22T09:06:43.392Z,45.40
2019-02-22T09:09:10.154Z,45.25
2019-02-22T09:11:36.888Z,44.67
2019-02-22T09:14:03.527Z,44.42
2019-02-22T09:16:30.243Z,44.55
2019-02-22T09:18:56.923Z,44.25
2019-02-22T09:21:23.740Z,45.25
2019-02-22T09:23:50.482Z,47.55
2019-02-22T09:26:18.248Z,44.75
2019-02-22T09:28:44.862Z,44.63
2019-02-22T09:31:11.620Z,44.10
2019-02-22T09:33:38.291Z,45.30
2019-02-22T09:36:05.025Z,43.08
2019-02-22T09:38:31.839Z,43.52
2019-02-22T09:40:58.578Z,41.60
2019-02-22T09:43:25.221Z,41.50
2019-02-22T09:45:51.851Z,44.53
2019-02-22T09:48:18.558Z,44.20
2019-02-22T09:50:45.146Z,41.77
2019-02-22T09:53:11.757Z,40.10
2019-02-22T09:55:38.439Z,38.20
2019-02-22T09:58:05.147Z,40.33
2019-02-22T10:00:31.750Z,40.80
2019-02-22T10:02:58.419Z,40.43
2019-02-22T10:05:25.164Z,41.23
2019-02-22T10:07:51.793Z,41.60
2019-02-22T10:10:18.477Z,37.55
2019-02-22T10:12:45.172Z,33.15
2019-02-22T10:15:11.773Z,32.58
2019-02-22T10:17:38.432Z,29.07
2019-02-22T10:20:07.621Z,32.25
2019-02-22T10:22:34.271Z,28.47
2019-02-22T10:25:01.039Z,30.52
2019-02-22T10:27:27.963Z,29.98
2019-02-22T10:29:54.699Z,31.45
2019-02-22T10:32:22.467Z,27.85
2019-02-22T10:34:49.199Z,29.18
2019-02-22T10:37:15.833Z,28.25
2019-02-22T10:39:42.575Z,28.95
2019-02-22T10:42:09.315Z,29.60
2019-02-22T10:44:36.061Z,28.20
2019-02-22T10:47:02.801Z,29.40
2019-02-22T10:49:29.533Z,28.00
2019-02-22T10:51:56.272Z,31.73
2019-02-22T10:54:23.011Z,28.77
2019-02-22T10:56:49.724Z,26.80
2019-02-22T10:59:16.318Z,25.85
2019-02-22T11:01:43.029Z,28.35
2019-02-22T11:04:09.765Z,29.42
2019-02-22T11:06:36.512Z,30.15
2019-02-22T11:09:05.094Z,29.30
2019-02-22T11:11:32.348Z,27.60
2019-02-22T11:13:59.086Z,26.87
2019-02-22T11:16:25.819Z,25.55
2019-02-22T11:18:52.558Z,24.30
2019-02-22T11:21:19.316Z,24.18
2019-02-22T11:23:46.963Z,23.52
2019-02-22T11:26:13.800Z,23.47
2019-02-22T11:28:40.505Z,25.80
2019-02-22T11:31:07.101Z,25.12
2019-02-22T11:33:33.816Z,25.30
2019-02-22T11:36:00.559Z,26.57
2019-02-22T11:38:27.503Z,28.50
2019-02-22T11:40:54.245Z,28.20
2019-02-22T11:43:21.287Z,28.87
2019-02-22T11:45:49.898Z,29.65
2019-02-22T11:48:16.610Z,30.70
2019-02-22T11:50:43.453Z,29.85
2019-02-22T11:53:10.051Z,29.65
2019-02-22T11:55:36.830Z,29.48
2019-02-22T11:58:03.561Z,30.80
2019-02-22T12:00:30.821Z,31.65
2019-02-22T12:02:57.522Z,28.45
2019-02-22T12:05:24.244Z,29.75
2019-02-22T12:07:50.851Z,26.60
2019-02-22T12:10:17.568Z,27.30
2019-02-22T12:12:44.256Z,26.62
2019-02-22T12:15:12.896Z,25.82
2019-02-22T12:17:39.700Z,27.17
2019-02-22T12:20:08.040Z,28.05
2019-02-22T12:22:34.847Z,23.70
2019-02-22T12:25:01.539Z,25.23
2019-02-22T12:27:28.403Z,24.20
2019-02-22T12:29:56.173Z,22.27
2019-02-22T12:32:23.985Z,17.77
2019-02-22T12:34:50.709Z,17.20
2019-02-22T12:37:17.448Z,17.42
2019-02-22T12:39:44.039Z,15.32
2019-02-22T12:42:10.815Z,18.95
2019-02-22T12:44:37.508Z,19.17
2019-02-22T12:47:04.210Z,17.35
2019-02-22T12:49:30.933Z,16.30
2019-02-22T12:51:57.661Z,15.40
2019-02-22T12:54:24.302Z,8.33
2019-02-22T12:56:57.547Z,9.18
2019-02-22T12:59:19.675Z,6.58
2019-02-22T13:01:46.386Z,4.85
2019-02-22T13:04:12.980Z,4.17
2019-02-22T13:06:39.640Z,2.83
2019-02-22T13:09:06.337Z,1.60
2019-02-22T13:11:34.740Z,2.10
2019-02-22T13:14:01.442Z,1.72
2019-02-22T13:16:28.143Z,3.22
2019-02-22T13:18:54.879Z,1.67
2019-02-22T13:21:21.562Z,1.50
2019-02-22T13:23:48.224Z,2.30
2019-02-22T13:26:17.916Z,2.10
2019-02-22T13:28:44.568Z,1.62
2019-02-22T13:31:11.213Z,1.50
2019-02-22T13:33:37.869Z,2.17
2019-02-22T13:36:04.572Z,1.65
2019-02-22T13:38:31.174Z,1.20
2019-02-22T13:40:57.827Z,1.50
2019-02-22T13:43:24.530Z,1.30
2019-02-22T13:45:51.175Z,1.20
2019-02-22T13:48:17.826Z,1.42
2019-02-22T13:50:44.519Z,1.60
2019-02-22T13:53:11.126Z,1.10
2019-02-22T13:55:37.830Z,0.80
2019-02-22T13:58:04.495Z,1.27
2019-02-22T14:00:31.142Z,0.90
2019-02-22T14:02:57.881Z,1.55
2019-02-22T14:05:24.552Z,1.67
2019-02-22T14:07:55.011Z,1.32
2019-02-22T14:10:22.435Z,1.05
2019-02-22T14:12:49.170Z,1.20
2019-02-22T14:15:15.759Z,0.50
2019-02-22T14:17:42.703Z,0.72
2019-02-22T14:20:09.413Z,0.60
2019-02-22T14:22:36.111Z,0.60
2019-02-22T14:25:02.815Z,0.50
2019-02-22T14:27:29.519Z,0.62
2019-02-22T14:29:56.210Z,0.60
2019-02-22T14:32:22.852Z,1.27
2019-02-22T14:34:49.626Z,0.78
2019-02-22T14:37:16.357Z,0.72
2019-02-22T14:39:43.085Z,0.53
2019-02-22T14:42:09.755Z,0.47
2019-02-22T14:44:36.474Z,0.62
2019-02-22T14:47:03.187Z,0.50
2019-02-22T14:49:30.895Z,0.30
2019-02-22T14:51:57.555Z,0.70
2019-02-22T14:54:24.298Z,0.75
2019-02-22T14:56:54.378Z,0.55
2019-02-22T14:59:21.126Z,0.60
2019-02-22T15:01:48.188Z,0.50
2019-02-22T15:04:16.515Z,0.90
2019-02-22T15:06:43.387Z,0.50
2019-02-22T15:09:10.009Z,0.33
2019-02-22T15:11:36.623Z,0.33
2019-02-22T15:14:03.352Z,0.30
2019-02-22T15:16:50.028Z,0.50
2019-02-22T15:19:18.749Z,0.40
2019-02-22T15:21:45.627Z,0.60
2019-02-22T15:24:12.467Z,0.75
2019-02-22T15:26:39.275Z,0.62
2019-02-22T15:29:05.917Z,0.40
2019-02-22T15:31:36.108Z,0.60
2019-02-22T15:34:01.315Z,0.62
2019-02-22T15:36:28.019Z,0.70
2019-02-22T15:38:54.723Z,0.60
2019-02-22T15:41:21.403Z,0.50
2019-02-22T15:43:48.162Z,0.62
2019-02-22T15:46:16.110Z,0.50
2019-02-22T15:48:42.851Z,0.40
2019-02-22T15:51:09.588Z,0.70
2019-02-22T15:53:36.325Z,0.60
2019-02-22T15:56:03.067Z,0.53
2019-02-22T15:58:29.783Z,1.10
2019-02-22T16:00:56.499Z,1.52
2019-02-22T16:03:26.145Z,1.42
2019-02-22T16:05:52.820Z,0.75
2019-02-22T16:08:19.522Z,1.05
2019-02-22T16:10:46.371Z,0.57
2019-02-22T16:13:13.009Z,6.45
2019-02-22T16:15:40.602Z,8.18
2019-02-22T16:18:07.613Z,0.70
2019-02-22T16:20:34.241Z,0.93
2019-02-22T16:23:00.887Z,0.70
2019-02-22T16:25:28.644Z,0.60
2019-02-22T16:27:55.281Z,0.57
2019-02-22T16:30:23.907Z,0.60
2019-02-22T16:32:50.806Z,0.80
2019-02-22T16:35:18.423Z,1.10
2019-02-22T16:37:45.215Z,1.22
2019-02-22T16:40:11.900Z,1.10
2019-02-22T16:42:39.005Z,1.30
2019-02-22T16:45:08.197Z,1.57
2019-02-22T16:47:40.127Z,2.90
2019-02-22T16:50:06.867Z,4.95
2019-02-22T16:52:33.635Z,2.42
2019-02-22T16:55:00.373Z,2.52
2019-02-22T16:57:27.336Z,1.57
2019-02-22T16:59:54.157Z,1.25
2019-02-22T17:02:21.100Z,0.93
2019-02-22T17:04:48.048Z,1.10
2019-02-22T17:07:15.911Z,0.88
2019-02-22T17:09:42.548Z,1.10
2019-02-22T17:12:09.238Z,2.08
2019-02-22T17:14:36.034Z,1.50
2019-02-22T17:17:03.901Z,3.40
2019-02-22T17:19:30.644Z,1.17
2019-02-22T17:21:57.485Z,1.07
2019-02-22T17:24:24.215Z,4.10
2019-02-22T17:26:50.952Z,3.15
2019-02-22T17:29:18.010Z,3.20
2019-02-22T17:31:44.749Z,3.42
2019-02-22T17:34:11.590Z,4.20
2019-02-22T17:36:38.464Z,3.90
2019-02-22T17:39:05.163Z,2.98
2019-02-22T17:41:33.801Z,3.60
2019-02-22T17:44:00.688Z,6.53
2019-02-22T17:46:27.426Z,27.15
2019-02-22T17:48:54.272Z,8.85
2019-02-22T17:51:21.000Z,5.62
2019-02-22T17:53:47.752Z,3.80
2019-02-22T17:56:15.622Z,5.62
2019-02-22T17:58:42.353Z,2.90
2019-02-22T18:01:08.998Z,2.72
2019-02-22T18:03:35.738Z,2.58
2019-02-22T18:06:02.477Z,2.83
2019-02-22T18:08:29.217Z,2.87
2019-02-22T18:10:56.051Z,3.08
2019-02-22T18:13:22.793Z,3.37
2019-02-22T18:15:49.427Z,3.75
2019-02-22T18:18:16.174Z,2.87
2019-02-22T18:20:43.119Z,2.90
2019-02-22T18:23:09.853Z,3.08
2019-02-22T18:25:36.597Z,3.40
2019-02-22T18:28:03.455Z,3.55
2019-02-22T18:30:30.175Z,3.87
2019-02-22T18:32:56.913Z,3.67
2019-02-22T18:35:24.165Z,3.67
2019-02-22T18:37:50.912Z,3.40
2019-02-22T18:40:19.281Z,3.80
2019-02-22T18:42:46.018Z,4.12
2019-02-22T18:48:04.996Z,4.55
2019-02-22T18:50:31.742Z,4.92
2019-02-22T18:52:58.478Z,3.40
2019-02-22T18:55:25.224Z,3.58
2019-02-22T18:57:51.950Z,3.77
2019-02-22T19:00:21.873Z,3.85
2019-02-22T19:02:48.757Z,3.87
2019-02-22T19:05:15.455Z,3.95
2019-02-22T19:07:42.191Z,3.55
2019-02-22T19:10:16.965Z,3.27
2019-02-22T19:12:43.709Z,3.65
2019-02-22T19:15:11.724Z,3.52
2019-02-22T19:17:38.472Z,3.85
2019-02-22T19:20:08.889Z,3.27
2019-02-22T19:22:35.635Z,3.70
2019-02-22T19:25:02.682Z,5.92
2019-02-22T19:27:29.415Z,3.90
2019-02-22T19:29:56.266Z,4.58
2019-02-22T19:32:23.001Z,3.83
2019-02-22T19:34:49.836Z,5.33
2019-02-22T19:37:16.681Z,4.25
2019-02-22T19:39:43.503Z,7.08
2019-02-22T19:42:10.268Z,4.83
2019-02-22T19:44:36.863Z,4.22
2019-02-22T19:47:03.653Z,4.87
2019-02-22T19:49:30.386Z,5.08
2019-02-22T19:51:57.123Z,4.70
2019-02-22T19:54:23.865Z,4.95
2019-02-22T19:56:50.697Z,4.47
2019-02-22T19:59:18.475Z,5.62
2019-02-22T20:01:45.202Z,4.35
2019-02-22T20:04:12.245Z,6.05
2019-02-22T20:06:38.891Z,4.47
2019-02-22T20:09:05.630Z,5.20
2019-02-22T20:11:34.001Z,5.65
2019-02-22T20:14:00.724Z,6.12
2019-02-22T20:16:27.493Z,6.25
2019-02-22T20:18:54.328Z,5.33
2019-02-22T20:21:20.962Z,5.22
2019-02-22T20:23:47.705Z,6.12
2019-02-22T20:26:14.501Z,6.33
2019-02-22T20:28:41.286Z,7.08
2019-02-22T20:31:08.025Z,5.92
2019-02-22T20:33:34.969Z,6.08
2019-02-22T20:36:01.709Z,5.55
2019-02-22T20:38:28.514Z,5.03
2019-02-22T20:40:55.290Z,5.75
2019-02-22T20:43:22.132Z,5.45
2019-02-22T20:45:48.866Z,4.42
2019-02-22T20:48:15.733Z,4.10
2019-02-22T20:50:42.336Z,3.27
2019-02-22T20:53:09.081Z,3.37
2019-02-22T20:55:35.749Z,3.20
2019-02-22T20:58:02.570Z,3.58
2019-02-22T21:00:29.309Z,3.35
2019-02-22T21:02:56.194Z,3.20
2019-02-22T21:05:22.840Z,3.22
2019-02-22T21:07:49.498Z,3.52
2019-02-22T21:10:17.695Z,3.72
2019-02-22T21:12:44.291Z,2.87
2019-02-22T21:15:11.759Z,3.77
2019-02-22T21:17:39.423Z,3.92
2019-02-22T21:20:08.546Z,3.47
2019-02-22T21:22:35.283Z,3.45
2019-02-22T21:25:02.027Z,3.72
2019-02-22T21:27:28.656Z,3.67
2019-02-22T21:29:55.402Z,3.80
2019-02-22T21:32:22.129Z,3.30
2019-02-22T21:34:49.032Z,3.45
2019-02-22T21:37:15.821Z,3.80
2019-02-22T21:39:42.561Z,3.70
2019-02-22T21:42:19.702Z,3.62
2019-02-22T21:44:37.880Z,3.92
2019-02-22T21:47:04.627Z,3.55
2019-02-22T21:49:31.566Z,3.62
2019-02-22T21:51:58.315Z,3.92
2019-02-22T21:54:25.174Z,4.08
2019-02-22T21:56:51.885Z,3.65
2019-02-22T21:59:18.625Z,3.92
2019-02-22T22:01:45.263Z,4.28
2019-02-22T22:04:12.213Z,4.03
2019-02-22T22:06:40.595Z,4.25
2019-02-22T22:09:07.616Z,4.15
2019-02-22T22:11:36.321Z,4.17
2019-02-22T22:14:03.065Z,4.42
2019-02-22T22:16:29.796Z,5.12
2019-02-22T22:18:56.770Z,4.72
2019-02-22T22:21:23.394Z,4.75
2019-02-22T22:23:50.123Z,4.58
2019-02-22T22:26:16.861Z,4.12
2019-02-22T22:28:43.599Z,4.58
2019-02-22T22:31:10.439Z,4.30
2019-02-22T22:33:37.285Z,4.33
2019-02-22T22:36:04.018Z,5.03
2019-02-22T22:38:30.764Z,4.92
2019-02-22T22:40:57.533Z,5.33
2019-02-22T22:43:24.244Z,5.12
2019-02-22T22:45:50.983Z,5.20
2019-02-22T22:48:17.816Z,4.65
2019-02-22T22:50:45.519Z,4.55
2019-02-22T22:53:12.331Z,4.90
2019-02-22T22:55:39.205Z,4.35
2019-02-22T22:58:05.915Z,4.80
2019-02-22T23:00:52.020Z,4.83
2019-02-22T23:03:20.498Z,4.47
2019-02-22T23:05:47.220Z,4.87
2019-02-22T23:08:14.057Z,5.40
2019-02-22T23:10:40.999Z,5.80
2019-02-22T23:13:07.745Z,5.15
2019-02-22T23:15:34.477Z,5.10
2019-02-22T23:18:01.326Z,5.90
2019-02-22T23:20:29.093Z,4.72
2019-02-22T23:22:55.835Z,5.53
2019-02-22T23:25:22.666Z,4.65
2019-02-22T23:27:49.405Z,5.35
2019-02-22T23:30:16.040Z,6.80
2019-02-22T23:32:42.789Z,5.70
2019-02-22T23:35:09.526Z,5.47
2019-02-22T23:37:36.259Z,5.53
2019-02-22T23:40:03.614Z,5.58
2019-02-22T23:42:31.382Z,5.65
2019-02-22T23:44:58.115Z,5.58
2019-02-22T23:47:24.855Z,4.97
2019-02-22T23:49:51.492Z,4.85
2019-02-22T23:52:18.235Z,5.37
2019-02-22T23:54:44.978Z,5.28
2019-02-22T23:57:11.710Z,5.45
2019-02-22T23:59:38.554Z,4.90
